sensor_id;sensor_type;location;lat;lon;timestamp;P1;durP1;ratioP1;P2;durP2;ratioP2
3369;SDS011;42042;51.948;7.628;2022-09-29T00:02:22;17.87;;;15.23;;
3369;SDS011;42042;51.948;7.628;2022-09-29T00:04:50;17.48;;;15.55;;
3369;SDS011;42042;51.948;7.628;2022-09-29T00:07:18;18.63;;;15.43;;
3369;SDS011;42042;51.948;7.628;2022-09-29T00:09:46;17.00;;;15.20;;
3369;SDS011;42042;51.948;7.628;2022-09-29T00:12:13;16.48;;;14.80;;
3369;SDS011;42042;51.948;7.628;2022-09-29T00:14:41;16.77;;;14.95;;
3369;SDS011;42042;51.948;7.628;2022-09-29T00:17:08;18.17;;;16.37;;
3369;SDS011;42042;51.948;7.628;2022-09-29T00:19:36;18.13;;;15.63;;
3369;SDS011;42042;51.948;7.628;2022-09-29T00:22:03;17.70;;;15.07;;
3369;SDS011;42042;51.948;7.628;2022-09-29T00:24:30;17.63;;;15.73;;
3369;SDS011;42042;51.948;7.628;2022-09-29T00:27:00;17.98;;;15.20;;
3369;SDS011;42042;51.948;7.628;2022-09-29T00:29:27;20.38;;;18.08;;
3369;SDS011;42042;51.948;7.628;2022-09-29T00:31:54;19.85;;;17.15;;
3369;SDS011;42042;51.948;7.628;2022-09-29T00:34:21;20.55;;;17.98;;
3369;SDS011;42042;51.948;7.628;2022-09-29T00:36:48;19.67;;;15.90;;
3369;SDS011;42042;51.948;7.628;2022-09-29T00:39:16;19.70;;;17.70;;
3369;SDS011;42042;51.948;7.628;2022-09-29T00:41:43;20.75;;;18.50;;
3369;SDS011;42042;51.948;7.628;2022-09-29T00:46:54;22.55;;;18.38;;
3369;SDS011;42042;51.948;7.628;2022-09-29T00:49:22;19.02;;;17.02;;
3369;SDS011;42042;51.948;7.628;2022-09-29T00:51:52;25.23;;;20.85;;
3369;SDS011;42042;51.948;7.628;2022-09-29T00:54:20;23.45;;;18.95;;
3369;SDS011;42042;51.948;7.628;2022-09-29T00:56:50;26.15;;;19.00;;
3369;SDS011;42042;51.948;7.628;2022-09-29T00:59:18;22.48;;;19.05;;
3369;SDS011;42042;51.948;7.628;2022-09-29T01:01:46;26.20;;;19.45;;
3369;SDS011;42042;51.948;7.628;2022-09-29T01:04:15;21.90;;;18.63;;
3369;SDS011;42042;51.948;7.628;2022-09-29T01:06:44;21.20;;;17.85;;
3369;SDS011;42042;51.948;7.628;2022-09-29T01:09:14;24.90;;;20.52;;
3369;SDS011;42042;51.948;7.628;2022-09-29T01:11:42;24.02;;;20.33;;
3369;SDS011;42042;51.948;7.628;2022-09-29T01:14:10;23.38;;;20.48;;
3369;SDS011;42042;51.948;7.628;2022-09-29T01:16:37;22.13;;;18.98;;
3369;SDS011;42042;51.948;7.628;2022-09-29T01:19:06;26.35;;;21.02;;
3369;SDS011;42042;51.948;7.628;2022-09-29T01:21:37;27.42;;;21.05;;
3369;SDS011;42042;51.948;7.628;2022-09-29T01:26:50;26.48;;;21.25;;
3369;SDS011;42042;51.948;7.628;2022-09-29T01:29:41;24.13;;;20.30;;
3369;SDS011;42042;51.948;7.628;2022-09-29T01:32:14;23.92;;;20.83;;
3369;SDS011;42042;51.948;7.628;2022-09-29T01:34:47;27.27;;;22.15;;
3369;SDS011;42042;51.948;7.628;2022-09-29T01:37:20;24.27;;;21.10;;
3369;SDS011;42042;51.948;7.628;2022-09-29T01:39:53;25.40;;;21.30;;
3369;SDS011;42042;51.948;7.628;2022-09-29T01:42:25;25.00;;;20.20;;
3369;SDS011;42042;51.948;7.628;2022-09-29T01:44:54;25.95;;;21.10;;
3369;SDS011;42042;51.948;7.628;2022-09-29T01:47:23;24.90;;;21.40;;
3369;SDS011;42042;51.948;7.628;2022-09-29T01:49:55;30.40;;;21.85;;
3369;SDS011;42042;51.948;7.628;2022-09-29T01:52:22;25.40;;;21.98;;
3369;SDS011;42042;51.948;7.628;2022-09-29T01:54:53;27.15;;;21.60;;
3369;SDS011;42042;51.948;7.628;2022-09-29T01:57:23;31.15;;;22.88;;
3369;SDS011;42042;51.948;7.628;2022-09-29T01:59:54;27.52;;;22.90;;
3369;SDS011;42042;51.948;7.628;2022-09-29T02:02:27;27.02;;;22.23;;
3369;SDS011;42042;51.948;7.628;2022-09-29T02:04:56;31.85;;;23.88;;
3369;SDS011;42042;51.948;7.628;2022-09-29T02:07:26;25.88;;;21.00;;
3369;SDS011;42042;51.948;7.628;2022-09-29T02:09:56;27.35;;;21.13;;
3369;SDS011;42042;51.948;7.628;2022-09-29T02:12:25;29.55;;;22.25;;
3369;SDS011;42042;51.948;7.628;2022-09-29T02:14:53;28.40;;;21.25;;
3369;SDS011;42042;51.948;7.628;2022-09-29T02:17:23;24.90;;;21.73;;
3369;SDS011;42042;51.948;7.628;2022-09-29T02:19:54;31.65;;;22.58;;
3369;SDS011;42042;51.948;7.628;2022-09-29T02:22:21;36.95;;;23.05;;
3369;SDS011;42042;51.948;7.628;2022-09-29T02:24:48;30.88;;;24.30;;
3369;SDS011;42042;51.948;7.628;2022-09-29T02:27:18;31.83;;;24.67;;
3369;SDS011;42042;51.948;7.628;2022-09-29T02:29:46;30.30;;;24.02;;
3369;SDS011;42042;51.948;7.628;2022-09-29T02:32:13;33.42;;;23.65;;
3369;SDS011;42042;51.948;7.628;2022-09-29T02:34:42;32.17;;;23.67;;
3369;SDS011;42042;51.948;7.628;2022-09-29T02:37:20;28.02;;;24.00;;
3369;SDS011;42042;51.948;7.628;2022-09-29T02:39:52;34.70;;;23.42;;
3369;SDS011;42042;51.948;7.628;2022-09-29T02:42:23;28.58;;;21.88;;
3369;SDS011;42042;51.948;7.628;2022-09-29T02:44:56;32.58;;;24.33;;
3369;SDS011;42042;51.948;7.628;2022-09-29T02:47:29;30.83;;;22.48;;
3369;SDS011;42042;51.948;7.628;2022-09-29T02:52:45;30.63;;;23.55;;
3369;SDS011;42042;51.948;7.628;2022-09-29T02:55:15;30.08;;;23.45;;
3369;SDS011;42042;51.948;7.628;2022-09-29T02:57:45;38.10;;;25.08;;
3369;SDS011;42042;51.948;7.628;2022-09-29T03:00:14;31.25;;;23.40;;
3369;SDS011;42042;51.948;7.628;2022-09-29T03:02:42;38.60;;;25.88;;
3369;SDS011;42042;51.948;7.628;2022-09-29T03:05:09;35.80;;;23.85;;
3369;SDS011;42042;51.948;7.628;2022-09-29T03:07:40;32.72;;;24.35;;
3369;SDS011;42042;51.948;7.628;2022-09-29T03:10:10;36.65;;;25.15;;
3369;SDS011;42042;51.948;7.628;2022-09-29T03:12:37;31.17;;;24.40;;
3369;SDS011;42042;51.948;7.628;2022-09-29T03:15:05;35.95;;;24.73;;
3369;SDS011;42042;51.948;7.628;2022-09-29T03:17:32;37.97;;;23.83;;
3369;SDS011;42042;51.948;7.628;2022-09-29T03:20:00;35.22;;;22.27;;
3369;SDS011;42042;51.948;7.628;2022-09-29T03:22:28;33.67;;;24.98;;
3369;SDS011;42042;51.948;7.628;2022-09-29T03:24:55;32.55;;;24.40;;
3369;SDS011;42042;51.948;7.628;2022-09-29T03:27:23;32.30;;;24.80;;
3369;SDS011;42042;51.948;7.628;2022-09-29T03:29:51;34.05;;;22.80;;
3369;SDS011;42042;51.948;7.628;2022-09-29T03:32:18;34.40;;;23.88;;
3369;SDS011;42042;51.948;7.628;2022-09-29T03:34:45;30.80;;;23.98;;
3369;SDS011;42042;51.948;7.628;2022-09-29T03:37:12;29.23;;;24.00;;
3369;SDS011;42042;51.948;7.628;2022-09-29T03:39:39;34.70;;;24.73;;
3369;SDS011;42042;51.948;7.628;2022-09-29T03:42:07;31.65;;;24.23;;
3369;SDS011;42042;51.948;7.628;2022-09-29T03:44:35;36.95;;;25.20;;
3369;SDS011;42042;51.948;7.628;2022-09-29T03:47:02;34.38;;;25.15;;
3369;SDS011;42042;51.948;7.628;2022-09-29T03:49:29;32.58;;;24.55;;
3369;SDS011;42042;51.948;7.628;2022-09-29T03:51:57;31.17;;;24.55;;
3369;SDS011;42042;51.948;7.628;2022-09-29T03:54:24;32.92;;;23.38;;
3369;SDS011;42042;51.948;7.628;2022-09-29T03:56:52;33.72;;;23.20;;
3369;SDS011;42042;51.948;7.628;2022-09-29T03:59:19;31.75;;;23.25;;
3369;SDS011;42042;51.948;7.628;2022-09-29T04:01:47;41.28;;;26.08;;
3369;SDS011;42042;51.948;7.628;2022-09-29T04:04:15;37.10;;;24.90;;
3369;SDS011;42042;51.948;7.628;2022-09-29T04:06:42;38.30;;;26.45;;
3369;SDS011;42042;51.948;7.628;2022-09-29T04:09:09;30.40;;;22.60;;
3369;SDS011;42042;51.948;7.628;2022-09-29T04:11:36;35.30;;;24.08;;
3369;SDS011;42042;51.948;7.628;2022-09-29T04:14:04;33.55;;;24.88;;
3369;SDS011;42042;51.948;7.628;2022-09-29T04:16:31;32.72;;;23.35;;
3369;SDS011;42042;51.948;7.628;2022-09-29T04:19:00;37.85;;;26.92;;
3369;SDS011;42042;51.948;7.628;2022-09-29T04:21:27;42.83;;;25.77;;
3369;SDS011;42042;51.948;7.628;2022-09-29T04:23:54;38.58;;;24.92;;
3369;SDS011;42042;51.948;7.628;2022-09-29T04:26:21;33.10;;;23.00;;
3369;SDS011;42042;51.948;7.628;2022-09-29T04:28:48;39.53;;;25.75;;
3369;SDS011;42042;51.948;7.628;2022-09-29T04:31:16;43.08;;;28.67;;
3369;SDS011;42042;51.948;7.628;2022-09-29T04:33:43;37.75;;;27.08;;
3369;SDS011;42042;51.948;7.628;2022-09-29T04:36:11;40.40;;;26.08;;
3369;SDS011;42042;51.948;7.628;2022-09-29T04:38:38;45.65;;;25.42;;
3369;SDS011;42042;51.948;7.628;2022-09-29T04:41:06;36.42;;;26.35;;
3369;SDS011;42042;51.948;7.628;2022-09-29T04:43:33;36.05;;;23.55;;
3369;SDS011;42042;51.948;7.628;2022-09-29T04:46:01;35.72;;;23.65;;
3369;SDS011;42042;51.948;7.628;2022-09-29T04:48:29;34.00;;;24.42;;
3369;SDS011;42042;51.948;7.628;2022-09-29T04:50:56;37.67;;;25.42;;
3369;SDS011;42042;51.948;7.628;2022-09-29T04:53:24;33.78;;;25.77;;
3369;SDS011;42042;51.948;7.628;2022-09-29T04:55:52;31.73;;;23.83;;
3369;SDS011;42042;51.948;7.628;2022-09-29T04:58:19;41.83;;;26.67;;
3369;SDS011;42042;51.948;7.628;2022-09-29T05:00:47;36.63;;;24.98;;
3369;SDS011;42042;51.948;7.628;2022-09-29T05:03:14;38.13;;;25.83;;
3369;SDS011;42042;51.948;7.628;2022-09-29T05:05:41;38.03;;;25.67;;
3369;SDS011;42042;51.948;7.628;2022-09-29T05:08:08;37.75;;;25.17;;
3369;SDS011;42042;51.948;7.628;2022-09-29T05:10:37;34.85;;;24.50;;
3369;SDS011;42042;51.948;7.628;2022-09-29T05:13:04;39.90;;;26.88;;
3369;SDS011;42042;51.948;7.628;2022-09-29T05:15:31;38.63;;;25.50;;
3369;SDS011;42042;51.948;7.628;2022-09-29T05:18:00;35.50;;;25.70;;
3369;SDS011;42042;51.948;7.628;2022-09-29T05:20:27;35.25;;;24.50;;
3369;SDS011;42042;51.948;7.628;2022-09-29T05:22:56;33.10;;;23.83;;
3369;SDS011;42042;51.948;7.628;2022-09-29T05:25:23;33.17;;;24.55;;
3369;SDS011;42042;51.948;7.628;2022-09-29T05:27:52;38.22;;;23.75;;
3369;SDS011;42042;51.948;7.628;2022-09-29T05:30:19;34.92;;;24.08;;
3369;SDS011;42042;51.948;7.628;2022-09-29T05:32:46;33.05;;;24.73;;
3369;SDS011;42042;51.948;7.628;2022-09-29T05:35:14;36.83;;;25.27;;
3369;SDS011;42042;51.948;7.628;2022-09-29T05:37:41;38.67;;;26.08;;
3369;SDS011;42042;51.948;7.628;2022-09-29T05:40:09;33.80;;;22.80;;
3369;SDS011;42042;51.948;7.628;2022-09-29T05:42:36;32.78;;;24.08;;
3369;SDS011;42042;51.948;7.628;2022-09-29T05:45:06;37.78;;;25.00;;
3369;SDS011;42042;51.948;7.628;2022-09-29T05:47:34;33.38;;;24.60;;
3369;SDS011;42042;51.948;7.628;2022-09-29T05:50:02;38.47;;;24.65;;
3369;SDS011;42042;51.948;7.628;2022-09-29T05:52:29;33.88;;;23.58;;
3369;SDS011;42042;51.948;7.628;2022-09-29T05:54:56;39.83;;;24.92;;
3369;SDS011;42042;51.948;7.628;2022-09-29T05:57:24;35.22;;;24.58;;
3369;SDS011;42042;51.948;7.628;2022-09-29T05:59:51;35.72;;;23.70;;
3369;SDS011;42042;51.948;7.628;2022-09-29T06:02:19;32.28;;;23.17;;
3369;SDS011;42042;51.948;7.628;2022-09-29T06:04:47;32.88;;;24.80;;
3369;SDS011;42042;51.948;7.628;2022-09-29T06:07:14;35.28;;;25.58;;
3369;SDS011;42042;51.948;7.628;2022-09-29T06:09:41;36.03;;;25.10;;
3369;SDS011;42042;51.948;7.628;2022-09-29T06:12:09;32.00;;;23.38;;
3369;SDS011;42042;51.948;7.628;2022-09-29T06:14:36;35.00;;;23.65;;
3369;SDS011;42042;51.948;7.628;2022-09-29T06:17:03;33.13;;;24.50;;
3369;SDS011;42042;51.948;7.628;2022-09-29T06:19:32;31.27;;;23.75;;
3369;SDS011;42042;51.948;7.628;2022-09-29T06:21:59;33.47;;;24.02;;
3369;SDS011;42042;51.948;7.628;2022-09-29T06:24:27;31.77;;;23.30;;
3369;SDS011;42042;51.948;7.628;2022-09-29T06:26:54;34.72;;;23.75;;
3369;SDS011;42042;51.948;7.628;2022-09-29T06:29:21;42.60;;;25.08;;
3369;SDS011;42042;51.948;7.628;2022-09-29T06:31:48;40.17;;;26.02;;
3369;SDS011;42042;51.948;7.628;2022-09-29T06:34:15;36.55;;;24.20;;
3369;SDS011;42042;51.948;7.628;2022-09-29T06:36:44;33.10;;;24.77;;
3369;SDS011;42042;51.948;7.628;2022-09-29T06:39:29;31.10;;;23.27;;
3369;SDS011;42042;51.948;7.628;2022-09-29T06:41:56;34.78;;;24.17;;
3369;SDS011;42042;51.948;7.628;2022-09-29T06:44:24;36.28;;;23.88;;
3369;SDS011;42042;51.948;7.628;2022-09-29T06:46:52;39.35;;;25.10;;
3369;SDS011;42042;51.948;7.628;2022-09-29T06:49:20;34.58;;;24.48;;
3369;SDS011;42042;51.948;7.628;2022-09-29T06:51:49;31.42;;;23.25;;
3369;SDS011;42042;51.948;7.628;2022-09-29T06:54:17;34.60;;;24.65;;
3369;SDS011;42042;51.948;7.628;2022-09-29T06:56:45;37.17;;;25.85;;
3369;SDS011;42042;51.948;7.628;2022-09-29T06:59:13;34.10;;;23.50;;
3369;SDS011;42042;51.948;7.628;2022-09-29T07:01:40;35.45;;;24.67;;
3369;SDS011;42042;51.948;7.628;2022-09-29T07:04:07;28.85;;;23.67;;
3369;SDS011;42042;51.948;7.628;2022-09-29T07:06:35;31.77;;;23.42;;
3369;SDS011;42042;51.948;7.628;2022-09-29T07:09:03;34.45;;;24.45;;
3369;SDS011;42042;51.948;7.628;2022-09-29T07:11:30;36.95;;;25.67;;
3369;SDS011;42042;51.948;7.628;2022-09-29T07:13:58;36.72;;;23.88;;
3369;SDS011;42042;51.948;7.628;2022-09-29T07:16:25;33.25;;;25.15;;
3369;SDS011;42042;51.948;7.628;2022-09-29T07:18:52;33.83;;;24.25;;
3369;SDS011;42042;51.948;7.628;2022-09-29T07:21:19;29.70;;;22.55;;
3369;SDS011;42042;51.948;7.628;2022-09-29T07:23:47;26.35;;;20.13;;
3369;SDS011;42042;51.948;7.628;2022-09-29T07:26:15;26.30;;;21.25;;
3369;SDS011;42042;51.948;7.628;2022-09-29T07:28:43;29.98;;;21.45;;
3369;SDS011;42042;51.948;7.628;2022-09-29T07:31:11;27.23;;;22.52;;
3369;SDS011;42042;51.948;7.628;2022-09-29T07:33:38;27.42;;;20.15;;
3369;SDS011;42042;51.948;7.628;2022-09-29T07:36:06;27.15;;;21.20;;
3369;SDS011;42042;51.948;7.628;2022-09-29T07:38:33;28.15;;;21.30;;
3369;SDS011;42042;51.948;7.628;2022-09-29T07:41:00;23.02;;;19.23;;
3369;SDS011;42042;51.948;7.628;2022-09-29T07:43:29;30.50;;;20.30;;
3369;SDS011;42042;51.948;7.628;2022-09-29T07:45:57;30.95;;;20.67;;
3369;SDS011;42042;51.948;7.628;2022-09-29T07:48:25;31.85;;;21.25;;
3369;SDS011;42042;51.948;7.628;2022-09-29T07:50:58;29.33;;;20.85;;
3369;SDS011;42042;51.948;7.628;2022-09-29T07:53:26;23.60;;;19.20;;
3369;SDS011;42042;51.948;7.628;2022-09-29T07:55:53;24.90;;;20.23;;
3369;SDS011;42042;51.948;7.628;2022-09-29T07:58:20;25.83;;;19.80;;
3369;SDS011;42042;51.948;7.628;2022-09-29T08:00:53;22.90;;;20.40;;
3369;SDS011;42042;51.948;7.628;2022-09-29T08:03:20;26.52;;;20.45;;
3369;SDS011;42042;51.948;7.628;2022-09-29T08:05:49;29.27;;;19.33;;
3369;SDS011;42042;51.948;7.628;2022-09-29T08:08:17;26.25;;;18.73;;
3369;SDS011;42042;51.948;7.628;2022-09-29T08:10:44;23.98;;;19.00;;
3369;SDS011;42042;51.948;7.628;2022-09-29T08:13:11;23.10;;;18.77;;
3369;SDS011;42042;51.948;7.628;2022-09-29T08:15:38;24.17;;;17.77;;
3369;SDS011;42042;51.948;7.628;2022-09-29T08:18:07;22.05;;;17.17;;
3369;SDS011;42042;51.948;7.628;2022-09-29T08:20:34;24.87;;;18.63;;
3369;SDS011;42042;51.948;7.628;2022-09-29T08:23:02;23.25;;;19.10;;
3369;SDS011;42042;51.948;7.628;2022-09-29T08:25:30;25.63;;;18.65;;
3369;SDS011;42042;51.948;7.628;2022-09-29T08:27:59;19.52;;;17.42;;
3369;SDS011;42042;51.948;7.628;2022-09-29T08:30:26;21.77;;;17.83;;
3369;SDS011;42042;51.948;7.628;2022-09-29T08:32:53;22.50;;;18.98;;
3369;SDS011;42042;51.948;7.628;2022-09-29T08:35:22;19.83;;;17.70;;
3369;SDS011;42042;51.948;7.628;2022-09-29T08:37:50;20.60;;;17.50;;
3369;SDS011;42042;51.948;7.628;2022-09-29T08:40:19;27.75;;;19.92;;
3369;SDS011;42042;51.948;7.628;2022-09-29T08:42:49;26.53;;;18.50;;
3369;SDS011;42042;51.948;7.628;2022-09-29T08:45:21;20.63;;;18.40;;
3369;SDS011;42042;51.948;7.628;2022-09-29T08:47:50;21.65;;;19.20;;
3369;SDS011;42042;51.948;7.628;2022-09-29T08:50:21;22.15;;;17.60;;
3369;SDS011;42042;51.948;7.628;2022-09-29T08:52:53;20.20;;;17.83;;
3369;SDS011;42042;51.948;7.628;2022-09-29T08:55:24;20.08;;;17.75;;
3369;SDS011;42042;51.948;7.628;2022-09-29T08:57:54;26.25;;;17.55;;
3369;SDS011;42042;51.948;7.628;2022-09-29T09:00:24;27.35;;;19.00;;
3369;SDS011;42042;51.948;7.628;2022-09-29T09:02:58;23.90;;;17.98;;
3369;SDS011;42042;51.948;7.628;2022-09-29T09:08:18;19.02;;;16.88;;
3369;SDS011;42042;51.948;7.628;2022-09-29T09:10:48;22.85;;;16.83;;
3369;SDS011;42042;51.948;7.628;2022-09-29T09:13:18;21.08;;;16.80;;
3369;SDS011;42042;51.948;7.628;2022-09-29T09:15:53;20.77;;;16.20;;
3369;SDS011;42042;51.948;7.628;2022-09-29T09:21:10;21.77;;;17.87;;
3369;SDS011;42042;51.948;7.628;2022-09-29T09:23:44;17.90;;;16.00;;
3369;SDS011;42042;51.948;7.628;2022-09-29T09:26:14;22.90;;;17.10;;
3369;SDS011;42042;51.948;7.628;2022-09-29T09:28:42;19.60;;;16.53;;
3369;SDS011;42042;51.948;7.628;2022-09-29T09:31:12;19.10;;;15.17;;
3369;SDS011;42042;51.948;7.628;2022-09-29T09:33:42;17.57;;;15.80;;
3369;SDS011;42042;51.948;7.628;2022-09-29T09:36:12;21.63;;;17.50;;
3369;SDS011;42042;51.948;7.628;2022-09-29T09:38:44;16.73;;;15.10;;
3369;SDS011;42042;51.948;7.628;2022-09-29T09:41:14;16.00;;;13.80;;
3369;SDS011;42042;51.948;7.628;2022-09-29T09:43:42;15.40;;;13.80;;
3369;SDS011;42042;51.948;7.628;2022-09-29T09:46:13;22.17;;;16.00;;
3369;SDS011;42042;51.948;7.628;2022-09-29T09:48:42;17.47;;;15.63;;
3369;SDS011;42042;51.948;7.628;2022-09-29T09:51:17;19.63;;;14.83;;
3369;SDS011;42042;51.948;7.628;2022-09-29T09:53:49;14.37;;;13.07;;
3369;SDS011;42042;51.948;7.628;2022-09-29T09:56:19;17.13;;;15.07;;
3369;SDS011;42042;51.948;7.628;2022-09-29T09:58:56;15.10;;;13.50;;
3369;SDS011;42042;51.948;7.628;2022-09-29T10:01:27;17.50;;;13.30;;
3369;SDS011;42042;51.948;7.628;2022-09-29T10:03:54;17.87;;;11.40;;
3369;SDS011;42042;51.948;7.628;2022-09-29T10:06:22;15.67;;;12.30;;
3369;SDS011;42042;51.948;7.628;2022-09-29T10:08:51;16.17;;;12.93;;
3369;SDS011;42042;51.948;7.628;2022-09-29T10:11:21;19.73;;;13.27;;
3369;SDS011;42042;51.948;7.628;2022-09-29T10:13:49;13.90;;;12.60;;
3369;SDS011;42042;51.948;7.628;2022-09-29T10:16:18;15.07;;;11.57;;
3369;SDS011;42042;51.948;7.628;2022-09-29T10:18:48;12.30;;;11.10;;
3369;SDS011;42042;51.948;7.628;2022-09-29T10:21:19;12.60;;;11.30;;
3369;SDS011;42042;51.948;7.628;2022-09-29T10:23:49;12.83;;;10.50;;
3369;SDS011;42042;51.948;7.628;2022-09-29T10:26:19;15.77;;;12.57;;
3369;SDS011;42042;51.948;7.628;2022-09-29T10:28:51;13.30;;;11.13;;
3369;SDS011;42042;51.948;7.628;2022-09-29T10:31:23;13.23;;;10.77;;
3369;SDS011;42042;51.948;7.628;2022-09-29T10:33:53;12.10;;;11.00;;
3369;SDS011;42042;51.948;7.628;2022-09-29T10:36:21;12.43;;;11.27;;
3369;SDS011;42042;51.948;7.628;2022-09-29T10:38:49;11.97;;;10.77;;
3369;SDS011;42042;51.948;7.628;2022-09-29T10:41:19;12.50;;;10.47;;
3369;SDS011;42042;51.948;7.628;2022-09-29T10:43:46;15.50;;;9.73;;
3369;SDS011;42042;51.948;7.628;2022-09-29T10:46:33;14.77;;;9.93;;
3369;SDS011;42042;51.948;7.628;2022-09-29T10:49:08;9.70;;;8.70;;
3369;SDS011;42042;51.948;7.628;2022-09-29T10:51:35;9.10;;;8.20;;
3369;SDS011;42042;51.948;7.628;2022-09-29T10:54:05;16.20;;;8.50;;
3369;SDS011;42042;51.948;7.628;2022-09-29T10:56:34;9.33;;;8.43;;
3369;SDS011;42042;51.948;7.628;2022-09-29T10:59:02;9.43;;;8.53;;
3369;SDS011;42042;51.948;7.628;2022-09-29T11:01:30;11.60;;;9.37;;
3369;SDS011;42042;51.948;7.628;2022-09-29T11:03:59;10.60;;;9.57;;
3369;SDS011;42042;51.948;7.628;2022-09-29T11:06:28;12.40;;;11.20;;
3369;SDS011;42042;51.948;7.628;2022-09-29T11:08:56;11.50;;;10.40;;
3369;SDS011;42042;51.948;7.628;2022-09-29T11:11:26;10.03;;;9.03;;
3369;SDS011;42042;51.948;7.628;2022-09-29T11:16:30;12.70;;;9.00;;
3369;SDS011;42042;51.948;7.628;2022-09-29T11:18:58;10.20;;;9.20;;
3369;SDS011;42042;51.948;7.628;2022-09-29T11:24:13;9.70;;;9.00;;
3369;SDS011;42042;51.948;7.628;2022-09-29T11:26:44;12.10;;;11.00;;
3369;SDS011;42042;51.948;7.628;2022-09-29T11:29:16;11.80;;;10.73;;
3369;SDS011;42042;51.948;7.628;2022-09-29T11:31:52;11.03;;;10.13;;
3369;SDS011;42042;51.948;7.628;2022-09-29T11:34:28;11.20;;;9.80;;
3369;SDS011;42042;51.948;7.628;2022-09-29T11:36:59;10.00;;;9.17;;
3369;SDS011;42042;51.948;7.628;2022-09-29T11:39:33;9.37;;;8.50;;
3369;SDS011;42042;51.948;7.628;2022-09-29T11:42:08;10.30;;;9.50;;
3369;SDS011;42042;51.948;7.628;2022-09-29T11:44:43;8.13;;;7.33;;
3369;SDS011;42042;51.948;7.628;2022-09-29T11:47:19;7.27;;;6.67;;
3369;SDS011;42042;51.948;7.628;2022-09-29T11:49:52;7.30;;;6.67;;
3369;SDS011;42042;51.948;7.628;2022-09-29T11:52:27;6.13;;;5.67;;
3369;SDS011;42042;51.948;7.628;2022-09-29T11:55:05;9.33;;;7.90;;
3369;SDS011;42042;51.948;7.628;2022-09-29T11:57:42;7.57;;;6.50;;
3369;SDS011;42042;51.948;7.628;2022-09-29T12:00:12;7.43;;;6.80;;
3369;SDS011;42042;51.948;7.628;2022-09-29T12:02:53;12.07;;;6.80;;
3369;SDS011;42042;51.948;7.628;2022-09-29T12:05:27;5.77;;;5.27;;
3369;SDS011;42042;51.948;7.628;2022-09-29T12:08:00;7.20;;;5.40;;
3369;SDS011;42042;51.948;7.628;2022-09-29T12:10:36;4.90;;;4.30;;
3369;SDS011;42042;51.948;7.628;2022-09-29T12:13:09;5.47;;;4.50;;
3369;SDS011;42042;51.948;7.628;2022-09-29T12:15:46;6.17;;;4.93;;
3369;SDS011;42042;51.948;7.628;2022-09-29T12:18:17;5.80;;;5.13;;
3369;SDS011;42042;51.948;7.628;2022-09-29T12:20:47;4.40;;;4.00;;
3369;SDS011;42042;51.948;7.628;2022-09-29T12:23:15;3.83;;;3.43;;
3369;SDS011;42042;51.948;7.628;2022-09-29T12:25:47;4.93;;;4.10;;
3369;SDS011;42042;51.948;7.628;2022-09-29T12:28:18;4.10;;;3.80;;
3369;SDS011;42042;51.948;7.628;2022-09-29T12:30:47;4.00;;;3.70;;
3369;SDS011;42042;51.948;7.628;2022-09-29T12:33:19;4.97;;;4.40;;
3369;SDS011;42042;51.948;7.628;2022-09-29T12:35:50;3.17;;;2.87;;
3369;SDS011;42042;51.948;7.628;2022-09-29T12:38:19;9.63;;;3.30;;
3369;SDS011;42042;51.948;7.628;2022-09-29T12:40:52;4.00;;;3.60;;
3369;SDS011;42042;51.948;7.628;2022-09-29T12:43:21;4.10;;;3.80;;
3369;SDS011;42042;51.948;7.628;2022-09-29T12:45:51;4.33;;;3.93;;
3369;SDS011;42042;51.948;7.628;2022-09-29T12:48:27;4.17;;;3.80;;
3369;SDS011;42042;51.948;7.628;2022-09-29T12:50:57;6.63;;;4.30;;
3369;SDS011;42042;51.948;7.628;2022-09-29T12:53:26;4.43;;;4.00;;
3369;SDS011;42042;51.948;7.628;2022-09-29T12:55:56;3.73;;;3.40;;
3369;SDS011;42042;51.948;7.628;2022-09-29T12:58:36;4.80;;;4.27;;
3369;SDS011;42042;51.948;7.628;2022-09-29T13:01:14;5.17;;;4.67;;
3369;SDS011;42042;51.948;7.628;2022-09-29T13:03:58;4.40;;;4.10;;
3369;SDS011;42042;51.948;7.628;2022-09-29T13:11:59;7.67;;;4.10;;
3369;SDS011;42042;51.948;7.628;2022-09-29T13:14:37;5.50;;;3.53;;
3369;SDS011;42042;51.948;7.628;2022-09-29T13:17:12;3.13;;;2.83;;
3369;SDS011;42042;51.948;7.628;2022-09-29T13:19:49;4.00;;;3.67;;
3369;SDS011;42042;51.948;7.628;2022-09-29T13:22:32;3.70;;;3.40;;
3369;SDS011;42042;51.948;7.628;2022-09-29T13:25:04;3.90;;;2.80;;
3369;SDS011;42042;51.948;7.628;2022-09-29T13:27:37;3.03;;;2.50;;
3369;SDS011;42042;51.948;7.628;2022-09-29T13:30:11;3.80;;;2.90;;
3369;SDS011;42042;51.948;7.628;2022-09-29T13:32:39;5.40;;;3.67;;
3369;SDS011;42042;51.948;7.628;2022-09-29T13:35:11;4.70;;;4.10;;
3369;SDS011;42042;51.948;7.628;2022-09-29T13:37:42;4.97;;;3.27;;
3369;SDS011;42042;51.948;7.628;2022-09-29T13:40:14;3.20;;;3.00;;
3369;SDS011;42042;51.948;7.628;2022-09-29T13:42:43;2.80;;;2.53;;
3369;SDS011;42042;51.948;7.628;2022-09-29T13:50:57;5.93;;;2.57;;
3369;SDS011;42042;51.948;7.628;2022-09-29T13:53:44;6.20;;;2.90;;
3369;SDS011;42042;51.948;7.628;2022-09-29T13:56:13;5.23;;;2.57;;
3369;SDS011;42042;51.948;7.628;2022-09-29T13:58:58;2.80;;;2.60;;
3369;SDS011;42042;51.948;7.628;2022-09-29T14:01:30;2.57;;;2.40;;
3369;SDS011;42042;51.948;7.628;2022-09-29T14:03:57;3.50;;;2.73;;
3369;SDS011;42042;51.948;7.628;2022-09-29T14:06:26;3.80;;;3.50;;
3369;SDS011;42042;51.948;7.628;2022-09-29T14:09:02;3.97;;;2.60;;
3369;SDS011;42042;51.948;7.628;2022-09-29T14:11:31;3.10;;;2.90;;
3369;SDS011;42042;51.948;7.628;2022-09-29T14:14:00;3.70;;;3.40;;
3369;SDS011;42042;51.948;7.628;2022-09-29T14:16:33;3.67;;;3.37;;
3369;SDS011;42042;51.948;7.628;2022-09-29T14:19:04;3.10;;;2.90;;
3369;SDS011;42042;51.948;7.628;2022-09-29T14:27:17;5.27;;;3.17;;
3369;SDS011;42042;51.948;7.628;2022-09-29T14:29:46;5.03;;;3.03;;
3369;SDS011;42042;51.948;7.628;2022-09-29T14:32:16;4.10;;;3.13;;
3369;SDS011;42042;51.948;7.628;2022-09-29T14:34:44;4.20;;;3.47;;
3369;SDS011;42042;51.948;7.628;2022-09-29T14:37:13;7.07;;;3.57;;
3369;SDS011;42042;51.948;7.628;2022-09-29T14:39:43;4.50;;;3.87;;
3369;SDS011;42042;51.948;7.628;2022-09-29T14:42:32;4.13;;;3.77;;
3369;SDS011;42042;51.948;7.628;2022-09-29T14:45:00;4.50;;;3.83;;
3369;SDS011;42042;51.948;7.628;2022-09-29T14:47:47;4.63;;;4.23;;
3369;SDS011;42042;51.948;7.628;2022-09-29T14:50:36;4.13;;;3.30;;
3369;SDS011;42042;51.948;7.628;2022-09-29T14:53:34;3.60;;;3.20;;
3369;SDS011;42042;51.948;7.628;2022-09-29T14:56:06;4.30;;;3.60;;
3369;SDS011;42042;51.948;7.628;2022-09-29T14:58:44;3.67;;;3.37;;
3369;SDS011;42042;51.948;7.628;2022-09-29T15:01:23;3.70;;;3.50;;
3369;SDS011;42042;51.948;7.628;2022-09-29T15:03:52;5.77;;;3.20;;
3369;SDS011;42042;51.948;7.628;2022-09-29T15:06:21;3.80;;;3.30;;
3369;SDS011;42042;51.948;7.628;2022-09-29T15:08:52;4.60;;;3.40;;
3369;SDS011;42042;51.948;7.628;2022-09-29T15:11:30;3.67;;;3.40;;
3369;SDS011;42042;51.948;7.628;2022-09-29T15:14:15;3.90;;;3.17;;
3369;SDS011;42042;51.948;7.628;2022-09-29T15:16:44;6.87;;;3.60;;
3369;SDS011;42042;51.948;7.628;2022-09-29T15:19:23;3.60;;;3.30;;
3369;SDS011;42042;51.948;7.628;2022-09-29T15:21:54;3.60;;;3.30;;
3369;SDS011;42042;51.948;7.628;2022-09-29T15:24:30;4.10;;;3.23;;
3369;SDS011;42042;51.948;7.628;2022-09-29T15:27:00;4.23;;;3.83;;
3369;SDS011;42042;51.948;7.628;2022-09-29T15:29:29;4.13;;;3.60;;
3369;SDS011;42042;51.948;7.628;2022-09-29T15:31:56;4.23;;;3.73;;
3369;SDS011;42042;51.948;7.628;2022-09-29T15:34:23;4.40;;;3.40;;